createdAt,value
2018-02-09T00:00:11.414Z,126.00
2018-02-09T00:01:11.569Z,126.70
2018-02-09T00:02:11.387Z,129.20
2018-02-09T00:03:11.380Z,135.00
2018-02-09T00:04:11.368Z,148.00
2018-02-09T00:05:11.368Z,146.70
2018-02-09T00:06:11.403Z,146.60
2018-02-09T00:07:11.357Z,147.30
2018-02-09T00:08:11.348Z,135.50
2018-02-09T00:09:11.336Z,136.50
2018-02-09T00:10:11.321Z,141.40
2018-02-09T00:11:11.357Z,137.50
2018-02-09T00:12:11.310Z,131.30
2018-02-09T00:13:11.301Z,130.90
2018-02-09T00:14:11.294Z,145.90
2018-02-09T00:15:11.275Z,151.70
2018-02-09T00:16:11.323Z,145.10
2018-02-09T00:17:11.276Z,140.30
2018-02-09T00:18:11.521Z,134.50
2018-02-09T00:19:11.250Z,135.20
2018-02-09T00:20:11.242Z,127.60
2018-02-09T00:21:11.288Z,132.10
2018-02-09T00:22:11.214Z,138.80
2018-02-09T00:23:11.204Z,139.50
2018-02-09T00:24:11.240Z,159.70
2018-02-09T00:25:11.185Z,166.20
2018-02-09T00:26:11.225Z,148.90
2018-02-09T00:27:11.183Z,133.50
2018-02-09T00:28:11.163Z,149.80
2018-02-09T00:29:11.200Z,151.70
2018-02-09T00:30:11.145Z,162.70
2018-02-09T00:31:11.136Z,153.80
2018-02-09T00:32:11.168Z,154.40
2018-02-09T00:33:11.129Z,144.40
2018-02-09T00:34:11.109Z,133.50
2018-02-09T00:35:11.102Z,140.90
2018-02-09T00:36:11.101Z,146.60
2018-02-09T00:37:11.121Z,168.00
2018-02-09T00:38:11.083Z,157.10
2018-02-09T00:39:11.072Z,152.20
2018-02-09T00:40:11.058Z,183.40
2018-02-09T00:41:11.058Z,166.20
2018-02-09T00:42:11.076Z,164.10
2018-02-09T00:43:11.041Z,149.10
2018-02-09T00:44:11.022Z,148.60
2018-02-09T00:45:11.028Z,144.30
2018-02-09T00:46:11.001Z,148.40
2018-02-09T00:47:11.034Z,155.80
2018-02-09T00:48:10.994Z,148.20
2018-02-09T00:49:10.975Z,153.20
2018-02-09T00:50:10.966Z,158.10
2018-02-09T00:51:10.960Z,169.90
2018-02-09T00:52:10.998Z,164.10
2018-02-09T00:53:10.941Z,161.00
2018-02-09T00:54:10.932Z,146.10
2018-02-09T00:55:10.935Z,145.90
2018-02-09T00:56:10.921Z,132.30
2018-02-09T00:57:10.960Z,148.70
2018-02-09T00:58:10.908Z,138.60
2018-02-09T00:59:10.895Z,133.00
2018-02-09T01:00:10.916Z,129.90
2018-02-09T01:01:10.876Z,139.40
2018-02-09T01:02:10.901Z,151.80
2018-02-09T01:03:10.849Z,177.50
2018-02-09T01:04:10.848Z,205.70
2018-02-09T01:05:10.831Z,159.30
2018-02-09T01:06:10.825Z,147.20
2018-02-09T01:07:10.870Z,151.30
2018-02-09T01:08:10.808Z,148.00
2018-02-09T01:09:10.807Z,132.50
2018-02-09T01:10:10.839Z,136.50
2018-02-09T01:11:10.789Z,140.20
2018-02-09T01:12:10.776Z,132.00
2018-02-09T01:13:10.812Z,141.60
2018-02-09T01:14:10.749Z,144.10
2018-02-09T01:15:10.796Z,127.50
2018-02-09T01:16:10.741Z,149.10
2018-02-09T01:17:10.729Z,153.30
2018-02-09T01:18:10.760Z,131.20
2018-02-09T01:19:10.715Z,151.90
2018-02-09T01:20:10.693Z,170.80
2018-02-09T01:21:10.696Z,156.00
2018-02-09T01:22:10.684Z,160.60
2018-02-09T01:23:10.717Z,171.30
2018-02-09T01:24:10.666Z,195.20
2018-02-09T01:25:10.663Z,192.60
2018-02-09T01:26:10.638Z,190.00
2018-02-09T01:27:10.639Z,206.80
2018-02-09T01:28:10.656Z,203.90
2018-02-09T01:29:10.624Z,202.40
2018-02-09T01:30:10.611Z,209.60
2018-02-09T01:31:10.607Z,194.70
2018-02-09T01:32:10.583Z,204.50
2018-02-09T01:33:10.629Z,179.60
2018-02-09T01:34:10.577Z,136.90
2018-02-09T01:35:10.600Z,129.00
2018-02-09T01:36:10.545Z,153.80
2018-02-09T01:37:10.538Z,156.10
2018-02-09T01:38:10.530Z,154.10
2018-02-09T01:39:10.557Z,138.50
2018-02-09T01:40:10.518Z,148.80
2018-02-09T01:41:10.501Z,144.10
2018-02-09T01:42:10.501Z,153.60
2018-02-09T01:43:10.484Z,173.80
2018-02-09T01:44:10.525Z,167.00
2018-02-09T01:45:10.486Z,148.30
2018-02-09T01:46:10.468Z,144.30
2018-02-09T01:47:10.452Z,140.20
2018-02-09T01:48:10.447Z,128.40
2018-02-09T01:49:10.468Z,143.90
2018-02-09T01:50:10.423Z,130.60
2018-02-09T01:51:10.426Z,139.00
2018-02-09T01:52:10.404Z,141.00
2018-02-09T01:53:10.404Z,125.20
2018-02-09T01:54:10.433Z,135.30
2018-02-09T01:55:10.378Z,131.00
2018-02-09T01:56:10.370Z,139.10
2018-02-09T01:57:10.370Z,136.90
2018-02-09T01:58:10.353Z,133.60
2018-02-09T01:59:10.389Z,136.60
2018-02-09T02:00:10.344Z,156.20
2018-02-09T02:01:10.386Z,120.50
2018-02-09T02:02:10.327Z,134.60
2018-02-09T02:03:10.319Z,117.30
2018-02-09T02:04:10.342Z,109.80
2018-02-09T02:05:10.297Z,115.10
2018-02-09T02:06:10.295Z,104.40
2018-02-09T02:07:10.276Z,67.40
2018-02-09T02:08:10.275Z,99.90
2018-02-09T02:09:10.308Z,104.20
2018-02-09T02:10:10.293Z,103.80
2018-02-09T02:11:10.243Z,96.10
2018-02-09T02:12:10.244Z,102.70
2018-02-09T02:13:10.226Z,94.70
2018-02-09T02:14:10.228Z,97.80
2018-02-09T02:15:10.264Z,102.50
2018-02-09T02:16:10.213Z,94.70
2018-02-09T02:17:10.196Z,90.10
2018-02-09T02:18:10.196Z,97.20
2018-02-09T02:19:10.190Z,92.20
2018-02-09T02:20:10.225Z,92.30
2018-02-09T02:21:10.164Z,100.10
2018-02-09T02:22:10.162Z,95.40
2018-02-09T02:23:10.153Z,87.00
2018-02-09T02:24:10.152Z,85.10
2018-02-09T02:25:10.186Z,70.10
2018-02-09T02:26:10.132Z,97.30
2018-02-09T02:27:10.129Z,97.80
2018-02-09T02:28:10.110Z,89.30
2018-02-09T02:29:10.112Z,86.70
2018-02-09T02:30:10.136Z,87.80
2018-02-09T02:31:10.098Z,89.30
2018-02-09T02:32:10.093Z,91.20
2018-02-09T02:33:10.085Z,91.00
2018-02-09T02:34:10.068Z,84.40
2018-02-09T02:35:10.108Z,85.80
2018-02-09T02:36:10.060Z,89.90
2018-02-09T02:37:10.052Z,84.40
2018-02-09T02:38:10.046Z,96.90
2018-02-09T02:39:10.032Z,84.80
2018-02-09T02:40:10.070Z,90.00
2018-02-09T02:41:10.034Z,78.50
2018-02-09T02:42:10.019Z,78.70
2018-02-09T02:43:10.008Z,75.30
2018-02-09T02:44:10.001Z,85.00
2018-02-09T02:45:10.035Z,80.70
2018-02-09T02:46:09.973Z,84.20
2018-02-09T02:47:09.968Z,84.30
2018-02-09T02:48:09.963Z,74.70
2018-02-09T02:49:09.962Z,82.70
2018-02-09T02:50:09.996Z,82.80
2018-02-09T02:51:09.938Z,73.10
2018-02-09T02:52:09.938Z,72.40
2018-02-09T02:53:09.923Z,76.00
2018-02-09T02:54:09.918Z,59.10
2018-02-09T02:55:09.957Z,83.10
2018-02-09T02:56:09.909Z,59.40
2018-02-09T02:57:09.894Z,72.40
2018-02-09T02:58:09.894Z,76.40
2018-02-09T02:59:09.886Z,81.20
2018-02-09T03:00:09.929Z,74.00
2018-02-09T03:01:10.029Z,74.10
2018-02-09T03:02:09.855Z,77.60
2018-02-09T03:03:09.847Z,79.90
2018-02-09T03:04:09.837Z,73.30
2018-02-09T03:05:09.873Z,90.50
2018-02-09T03:06:09.832Z,81.30
2018-02-09T03:07:09.814Z,81.80
2018-02-09T03:08:09.806Z,81.50
2018-02-09T03:09:09.798Z,77.90
2018-02-09T03:10:09.836Z,81.40
2018-02-09T03:11:09.785Z,76.30
2018-02-09T03:12:09.775Z,73.10
2018-02-09T03:13:10.706Z,88.40
2018-02-09T03:14:09.758Z,83.40
2018-02-09T03:15:09.789Z,85.30
2018-02-09T03:16:09.791Z,84.90
2018-02-09T03:17:09.736Z,80.70
2018-02-09T03:18:09.730Z,88.30
2018-02-09T03:19:09.719Z,80.00
2018-02-09T03:20:09.749Z,83.80
2018-02-09T03:21:09.911Z,87.80
2018-02-09T03:22:09.697Z,84.00
2018-02-09T03:23:09.689Z,94.00
2018-02-09T03:24:09.679Z,79.20
2018-02-09T03:25:09.672Z,89.60
2018-02-09T03:26:09.701Z,87.40
2018-02-09T03:27:09.656Z,89.90
2018-02-09T03:28:09.648Z,79.30
2018-02-09T03:29:09.641Z,77.70
2018-02-09T03:30:09.639Z,82.00
2018-02-09T03:31:09.666Z,84.40
2018-02-09T03:32:09.614Z,91.90
2018-02-09T03:33:09.605Z,93.70
2018-02-09T03:34:09.598Z,88.40
2018-02-09T03:35:09.590Z,81.90
2018-02-09T03:36:09.620Z,82.60
2018-02-09T03:37:09.573Z,92.00
2018-02-09T03:38:09.565Z,90.40
2018-02-09T03:39:09.558Z,85.60
2018-02-09T03:40:09.555Z,90.00
2018-02-09T03:41:09.586Z,88.50
2018-02-09T03:42:09.532Z,86.20
2018-02-09T03:43:09.526Z,93.30
2018-02-09T03:44:09.552Z,88.60
2018-02-09T03:45:09.506Z,81.00
2018-02-09T03:46:09.540Z,84.20
2018-02-09T03:47:09.492Z,86.40
2018-02-09T03:48:09.481Z,86.20
2018-02-09T03:49:09.472Z,88.00
2018-02-09T03:50:09.465Z,91.10
2018-02-09T03:51:09.503Z,83.00
2018-02-09T03:52:09.453Z,91.60
2018-02-09T03:53:09.444Z,87.40
2018-02-09T03:54:09.468Z,88.80
2018-02-09T03:55:09.424Z,78.40
2018-02-09T03:56:09.419Z,77.50
2018-02-09T03:57:09.442Z,80.60
2018-02-09T03:58:09.401Z,82.60
2018-02-09T03:59:09.396Z,73.20
2018-02-09T04:00:09.381Z,75.40
2018-02-09T04:01:09.474Z,97.50
2018-02-09T04:02:09.361Z,80.60
2018-02-09T04:03:09.356Z,78.50
2018-02-09T04:04:09.346Z,86.00
2018-02-09T04:05:09.344Z,80.00
2018-02-09T04:06:09.371Z,85.40
2018-02-09T04:07:09.322Z,77.50
2018-02-09T04:08:09.311Z,87.30
2018-02-09T04:09:09.301Z,87.10
2018-02-09T04:10:09.294Z,77.00
2018-02-09T04:11:09.325Z,76.30
2018-02-09T04:12:09.275Z,83.90
2018-02-09T04:13:09.269Z,82.70
2018-02-09T04:14:09.261Z,60.60
2018-02-09T04:15:09.250Z,83.60
2018-02-09T04:16:09.280Z,85.10
2018-02-09T04:17:09.235Z,75.50
2018-02-09T04:18:09.226Z,79.10
2018-02-09T04:19:09.214Z,76.40
2018-02-09T04:20:09.209Z,77.80
2018-02-09T04:21:09.262Z,85.60
2018-02-09T04:22:09.206Z,79.50
2018-02-09T04:23:09.183Z,88.80
2018-02-09T04:24:09.194Z,79.90
2018-02-09T04:25:09.163Z,79.10
2018-02-09T04:26:09.199Z,66.90
2018-02-09T04:27:09.148Z,81.80
2018-02-09T04:28:09.139Z,80.60
2018-02-09T04:29:09.131Z,69.30
2018-02-09T04:30:09.122Z,76.40
2018-02-09T04:31:09.159Z,78.40
2018-02-09T04:32:09.105Z,87.10
2018-02-09T04:33:09.109Z,95.20
2018-02-09T04:34:09.086Z,73.90
2018-02-09T04:35:09.079Z,74.40
2018-02-09T04:36:09.113Z,69.00
2018-02-09T04:37:09.067Z,65.40
2018-02-09T04:38:09.061Z,97.80
2018-02-09T04:39:09.045Z,98.90
2018-02-09T04:40:09.072Z,109.60
2018-02-09T04:41:09.030Z,88.90
2018-02-09T04:42:09.016Z,75.10
2018-02-09T04:43:09.008Z,122.40
2018-02-09T04:44:09.000Z,114.70
2018-02-09T04:45:09.049Z,105.40
2018-02-09T04:46:08.984Z,133.10
2018-02-09T04:47:08.977Z,116.50
2018-02-09T04:48:08.964Z,94.00
2018-02-09T04:49:08.956Z,79.30
2018-02-09T04:50:08.995Z,69.30
2018-02-09T04:51:08.937Z,76.20
2018-02-09T04:52:08.926Z,102.80
2018-02-09T04:53:08.922Z,91.50
2018-02-09T04:54:08.914Z,106.30
2018-02-09T04:55:08.945Z,122.30
2018-02-09T04:56:08.898Z,121.60
2018-02-09T04:57:08.902Z,118.00
2018-02-09T04:58:08.874Z,97.30
2018-02-09T04:59:08.867Z,108.30
2018-02-09T05:00:08.893Z,106.10
2018-02-09T05:01:08.889Z,88.20
2018-02-09T05:02:08.838Z,104.20
2018-02-09T05:03:09.703Z,109.70
2018-02-09T05:04:08.821Z,96.80
2018-02-09T05:05:09.105Z,120.40
2018-02-09T05:06:08.841Z,113.70
2018-02-09T05:07:08.792Z,107.90
2018-02-09T05:08:08.782Z,96.10
2018-02-09T05:09:08.775Z,114.50
2018-02-09T05:10:08.765Z,145.70
2018-02-09T05:11:08.793Z,163.70
2018-02-09T05:12:08.743Z,135.90
2018-02-09T05:13:08.734Z,107.60
2018-02-09T05:14:08.727Z,124.20
2018-02-09T05:15:08.763Z,104.10
2018-02-09T05:16:08.713Z,103.00
2018-02-09T05:17:08.704Z,127.20
2018-02-09T05:18:08.691Z,105.80
2018-02-09T05:19:08.679Z,52.80
2018-02-09T05:20:08.716Z,80.20
2018-02-09T05:21:08.661Z,72.30
2018-02-09T05:22:08.655Z,89.00
2018-02-09T05:23:08.644Z,71.40
2018-02-09T05:24:08.632Z,78.70
2018-02-09T05:25:08.670Z,87.70
2018-02-09T05:26:08.615Z,84.90
2018-02-09T05:27:08.605Z,79.60
2018-02-09T05:28:08.598Z,90.90
2018-02-09T05:29:08.587Z,82.40
2018-02-09T05:30:08.617Z,80.70
2018-02-09T05:31:08.575Z,79.90
2018-02-09T05:32:08.558Z,89.90
2018-02-09T05:33:08.549Z,95.30
2018-02-09T05:34:08.571Z,83.50
2018-02-09T05:35:08.572Z,72.20
2018-02-09T05:36:09.094Z,94.50
2018-02-09T05:37:08.639Z,135.60
2018-02-09T05:38:08.526Z,89.50
2018-02-09T05:39:08.493Z,100.30
2018-02-09T05:40:08.532Z,100.40
2018-02-09T05:41:08.474Z,65.20
2018-02-09T05:42:08.466Z,88.20
2018-02-09T05:43:08.456Z,92.60
2018-02-09T05:44:08.447Z,102.40
2018-02-09T05:45:08.499Z,97.10
2018-02-09T05:46:08.426Z,94.40
2018-02-09T05:47:08.417Z,103.10
2018-02-09T05:48:08.411Z,101.40
2018-02-09T05:49:08.401Z,89.70
2018-02-09T05:50:08.428Z,102.50
2018-02-09T05:51:08.386Z,100.60
2018-02-09T05:52:08.372Z,107.30
2018-02-09T05:53:08.362Z,107.20
2018-02-09T05:54:08.356Z,91.10
2018-02-09T05:55:08.381Z,94.10
2018-02-09T05:56:08.333Z,89.50
2018-02-09T05:57:08.323Z,92.50
2018-02-09T05:58:08.315Z,97.50
2018-02-09T05:59:08.303Z,91.90
2018-02-09T06:00:08.341Z,98.50
2018-02-09T06:01:08.284Z,102.30
2018-02-09T06:02:08.274Z,99.50
2018-02-09T06:03:08.265Z,95.00
2018-02-09T06:04:08.253Z,102.40
2018-02-09T06:05:08.338Z,103.70
2018-02-09T06:06:08.282Z,84.70
2018-02-09T06:07:08.229Z,107.10
2018-02-09T06:08:08.220Z,106.40
2018-02-09T06:09:08.207Z,101.30
2018-02-09T06:10:08.205Z,88.90
2018-02-09T06:11:08.230Z,110.60
2018-02-09T06:12:08.177Z,113.40
2018-02-09T06:13:08.166Z,122.30
2018-02-09T06:14:08.160Z,140.90
2018-02-09T06:15:08.185Z,133.30
2018-02-09T06:16:08.135Z,102.20
2018-02-09T06:17:08.167Z,110.20
2018-02-09T06:18:08.118Z,120.70
2018-02-09T06:19:08.106Z,140.50
2018-02-09T06:20:08.097Z,143.70
2018-02-09T06:21:08.088Z,128.80
2018-02-09T06:22:08.112Z,121.40
2018-02-09T06:23:08.065Z,123.30
2018-02-09T06:24:08.057Z,121.00
2018-02-09T06:25:08.043Z,147.50
2018-02-09T06:26:08.035Z,104.80
2018-02-09T06:27:08.069Z,115.90
2018-02-09T06:28:08.020Z,137.70
2018-02-09T06:29:08.008Z,156.00
2018-02-09T06:30:07.994Z,167.70
2018-02-09T06:31:07.984Z,166.80
2018-02-09T06:32:08.018Z,140.70
2018-02-09T06:33:07.962Z,120.80
2018-02-09T06:34:07.992Z,123.20
2018-02-09T06:35:07.946Z,126.30
2018-02-09T06:36:07.932Z,125.90
2018-02-09T06:37:08.066Z,118.30
2018-02-09T06:38:07.957Z,117.60
2018-02-09T06:39:07.956Z,99.20
2018-02-09T06:40:07.894Z,142.50
2018-02-09T06:41:07.884Z,143.20
2018-02-09T06:42:07.870Z,128.70
2018-02-09T06:43:07.869Z,122.10
2018-02-09T06:44:07.852Z,107.70
2018-02-09T06:45:07.882Z,105.60
2018-02-09T06:46:07.828Z,63.10
2018-02-09T06:47:07.824Z,95.00
2018-02-09T06:48:07.811Z,105.20
2018-02-09T06:49:07.849Z,108.40
2018-02-09T06:50:07.836Z,106.50
2018-02-09T06:51:07.784Z,107.00
2018-02-09T06:52:07.780Z,136.70
2018-02-09T06:53:07.760Z,103.70
2018-02-09T06:54:07.752Z,85.60
2018-02-09T06:55:07.785Z,89.10
2018-02-09T06:56:07.732Z,94.10
2018-02-09T06:57:07.896Z,104.80
2018-02-09T06:58:07.712Z,100.90
2018-02-09T06:59:07.701Z,97.30
2018-02-09T07:00:07.746Z,85.20
2018-02-09T07:01:07.683Z,71.50
2018-02-09T07:02:07.674Z,83.60
2018-02-09T07:03:07.664Z,84.90
2018-02-09T07:04:07.652Z,75.60
2018-02-09T07:05:07.686Z,50.10
2018-02-09T07:06:07.634Z,85.30
2018-02-09T07:07:07.621Z,81.10
2018-02-09T07:08:07.615Z,85.90
2018-02-09T07:09:07.645Z,93.50
2018-02-09T07:10:07.594Z,80.30
2018-02-09T07:11:07.629Z,89.90
2018-02-09T07:12:07.577Z,88.20
2018-02-09T07:13:07.564Z,85.60
2018-02-09T07:14:07.591Z,90.10
2018-02-09T07:15:07.543Z,93.50
2018-02-09T07:16:07.575Z,92.60
2018-02-09T07:17:07.523Z,96.10
2018-02-09T07:18:07.519Z,93.70
2018-02-09T07:19:07.510Z,93.80
2018-02-09T07:20:07.498Z,95.70
2018-02-09T07:21:07.528Z,88.70
2018-02-09T07:22:07.478Z,90.50
2018-02-09T07:23:07.468Z,93.70
2018-02-09T07:24:07.457Z,88.30
2018-02-09T07:25:07.447Z,77.60
2018-02-09T07:26:07.478Z,98.60
2018-02-09T07:27:07.428Z,96.60
2018-02-09T07:28:07.419Z,88.80
2018-02-09T07:29:07.409Z,89.80
2018-02-09T07:30:07.400Z,90.40
2018-02-09T07:31:07.434Z,86.20
2018-02-09T07:32:07.380Z,88.70
2018-02-09T07:33:07.371Z,94.20
2018-02-09T07:34:07.363Z,95.50
2018-02-09T07:35:07.355Z,102.10
2018-02-09T07:36:07.387Z,94.80
2018-02-09T07:37:07.342Z,90.00
2018-02-09T07:38:07.326Z,88.30
2018-02-09T07:39:07.359Z,89.60
2018-02-09T07:40:07.311Z,81.30
2018-02-09T07:41:07.340Z,88.00
2018-02-09T07:42:07.294Z,86.60
2018-02-09T07:43:07.285Z,83.10
2018-02-09T07:44:07.276Z,87.20
2018-02-09T07:45:07.269Z,86.70
2018-02-09T07:46:07.307Z,79.60
2018-02-09T07:47:07.256Z,69.20
2018-02-09T07:48:07.249Z,73.40
2018-02-09T07:49:07.244Z,73.40
2018-02-09T07:50:07.236Z,74.50
2018-02-09T07:51:07.280Z,72.40
2018-02-09T07:52:07.223Z,72.10
2018-02-09T07:53:07.217Z,69.40
2018-02-09T07:54:07.220Z,72.80
2018-02-09T07:55:07.252Z,75.30
2018-02-09T07:56:07.245Z,70.10
2018-02-09T07:57:07.200Z,72.90
2018-02-09T07:58:07.201Z,71.90
2018-02-09T07:59:07.189Z,74.90
2018-02-09T08:00:07.182Z,72.60
2018-02-09T08:01:07.221Z,71.80
2018-02-09T08:02:07.179Z,70.10
2018-02-09T08:03:07.176Z,67.70
2018-02-09T08:04:07.169Z,68.20
2018-02-09T08:05:07.166Z,76.50
2018-02-09T08:06:07.204Z,75.60
2018-02-09T08:07:07.164Z,75.60
2018-02-09T08:08:07.161Z,70.70
2018-02-09T08:09:07.153Z,68.80
2018-02-09T08:10:07.152Z,70.60
2018-02-09T08:11:07.204Z,70.50
2018-02-09T08:12:07.147Z,69.40
2018-02-09T08:13:07.146Z,64.60
2018-02-09T08:14:07.143Z,63.30
2018-02-09T08:15:07.184Z,65.40
2018-02-09T08:16:07.187Z,63.30
2018-02-09T08:17:07.142Z,66.00
2018-02-09T08:18:07.151Z,61.90
2018-02-09T08:19:07.139Z,66.30
2018-02-09T08:20:07.177Z,62.50
2018-02-09T08:21:07.134Z,59.70
2018-02-09T08:22:07.175Z,60.20
2018-02-09T08:23:07.136Z,61.50
2018-02-09T08:24:07.135Z,62.60
2018-02-09T08:25:07.138Z,61.60
2018-02-09T08:26:07.135Z,64.90
2018-02-09T08:27:07.179Z,60.10
2018-02-09T08:28:07.131Z,65.10
2018-02-09T08:29:07.176Z,62.30
2018-02-09T08:30:07.143Z,62.20
2018-02-09T08:31:07.133Z,62.40
2018-02-09T08:32:07.170Z,53.80
2018-02-09T08:33:07.134Z,61.40
2018-02-09T08:34:07.132Z,62.00
2018-02-09T08:35:07.136Z,62.60
2018-02-09T08:36:07.135Z,58.30
2018-02-09T08:37:07.183Z,59.20
2018-02-09T08:38:07.140Z,62.30
2018-02-09T08:39:07.180Z,59.50
2018-02-09T08:40:07.142Z,62.10
2018-02-09T08:41:07.143Z,57.70
2018-02-09T08:42:07.152Z,63.10
2018-02-09T08:43:07.194Z,55.40
2018-02-09T08:44:07.190Z,62.30
2018-02-09T08:45:07.151Z,63.40
2018-02-09T08:46:07.154Z,58.30
2018-02-09T08:47:07.153Z,60.10
2018-02-09T08:48:07.156Z,61.20
2018-02-09T08:49:07.196Z,60.00
2018-02-09T08:50:07.163Z,63.10
2018-02-09T08:51:07.166Z,60.20
2018-02-09T08:52:07.166Z,61.80
2018-02-09T08:53:07.168Z,53.90
2018-02-09T08:54:07.217Z,49.80
2018-02-09T08:55:07.179Z,53.60
2018-02-09T08:56:07.178Z,52.90
2018-02-09T08:57:07.220Z,60.80
2018-02-09T08:58:07.196Z,55.50
2018-02-09T08:59:07.238Z,53.70
2018-02-09T09:00:07.196Z,55.30
2018-02-09T09:01:07.202Z,55.70
2018-02-09T09:02:07.203Z,45.50
2018-02-09T09:03:07.208Z,48.90
2018-02-09T09:04:07.255Z,54.00
2018-02-09T09:05:07.210Z,54.80
2018-02-09T09:06:07.216Z,48.60
2018-02-09T09:07:07.222Z,50.60
2018-02-09T09:08:07.227Z,52.80
2018-02-09T09:09:07.268Z,52.00
2018-02-09T09:10:07.270Z,56.60
2018-02-09T09:11:07.244Z,57.70
2018-02-09T09:12:07.245Z,53.50
2018-02-09T09:13:07.251Z,52.20
2018-02-09T09:14:07.252Z,42.20
2018-02-09T09:15:07.298Z,54.00
2018-02-09T09:16:07.266Z,51.30
2018-02-09T09:17:07.269Z,53.00
2018-02-09T09:18:07.274Z,52.50
2018-02-09T09:19:07.278Z,49.10
2018-02-09T09:20:07.324Z,51.20
2018-02-09T09:21:07.286Z,57.30
2018-02-09T09:22:07.294Z,50.00
2018-02-09T09:23:07.298Z,53.80
2018-02-09T09:24:07.304Z,53.20
2018-02-09T09:25:07.348Z,42.70
2018-02-09T09:26:07.309Z,32.10
2018-02-09T09:27:07.314Z,47.90
2018-02-09T09:28:07.319Z,44.50
2018-02-09T09:29:07.327Z,56.30
2018-02-09T09:30:07.373Z,47.90
2018-02-09T09:31:07.335Z,51.80
2018-02-09T09:32:07.347Z,43.90
2018-02-09T09:33:07.347Z,51.50
2018-02-09T09:34:07.350Z,50.40
2018-02-09T09:35:07.405Z,51.00
2018-02-09T09:36:07.363Z,49.30
2018-02-09T09:37:07.364Z,50.40
2018-02-09T09:38:07.415Z,52.30
2018-02-09T09:39:07.415Z,56.10
2018-02-09T09:40:07.383Z,52.00
2018-02-09T09:41:07.426Z,41.50
2018-02-09T09:42:07.397Z,51.90
2018-02-09T09:43:07.399Z,49.80
2018-02-09T09:44:07.405Z,50.70
2018-02-09T09:45:07.410Z,45.50
2018-02-09T09:46:07.455Z,55.40
2018-02-09T09:47:07.427Z,47.90
2018-02-09T09:48:07.427Z,49.60
2018-02-09T09:49:07.452Z,48.80
2018-02-09T09:50:07.441Z,54.90
2018-02-09T09:51:07.493Z,50.90
2018-02-09T09:52:07.456Z,55.40
2018-02-09T09:53:07.496Z,40.70
2018-02-09T09:54:07.468Z,52.30
2018-02-09T09:55:07.471Z,57.30
2018-02-09T09:56:07.471Z,48.30
2018-02-09T09:57:07.519Z,43.20
2018-02-09T09:58:07.523Z,48.60
2018-02-09T09:59:07.489Z,53.70
2018-02-09T10:00:07.494Z,50.00
2018-02-09T10:01:07.512Z,50.40
2018-02-09T10:02:07.542Z,47.40
2018-02-09T10:03:07.547Z,55.50
2018-02-09T10:04:07.502Z,58.10
2018-02-09T10:05:07.504Z,50.90
2018-02-09T10:06:07.509Z,53.90
2018-02-09T10:07:07.515Z,52.20
2018-02-09T10:08:07.558Z,54.00
2018-02-09T10:09:07.512Z,59.40
2018-02-09T10:10:07.518Z,57.40
2018-02-09T10:11:07.515Z,54.60
2018-02-09T10:12:08.317Z,46.60
2018-02-09T10:13:07.555Z,51.90
2018-02-09T10:14:07.519Z,62.00
2018-02-09T10:15:08.144Z,51.30
2018-02-09T10:16:07.517Z,50.90
2018-02-09T10:17:07.519Z,52.10
2018-02-09T10:18:07.565Z,42.70
2018-02-09T10:19:07.518Z,56.40
2018-02-09T10:20:07.516Z,50.80
2018-02-09T10:21:07.515Z,51.60
2018-02-09T10:22:07.518Z,59.40
2018-02-09T10:23:07.553Z,39.00
2018-02-09T10:24:07.554Z,56.40
2018-02-09T10:25:07.515Z,57.00
2018-02-09T10:26:07.516Z,59.70
2018-02-09T10:27:07.509Z,58.00
2018-02-09T10:28:07.805Z,54.70
2018-02-09T10:29:07.547Z,58.20
2018-02-09T10:30:07.508Z,52.60
2018-02-09T10:31:07.552Z,51.60
2018-02-09T10:32:07.507Z,56.10
2018-02-09T10:33:07.509Z,57.50
2018-02-09T10:34:07.543Z,48.40
2018-02-09T10:35:07.496Z,53.50
2018-02-09T10:36:07.497Z,45.10
2018-02-09T10:37:07.494Z,62.80
2018-02-09T10:38:07.536Z,54.70
2018-02-09T10:39:07.533Z,57.00
2018-02-09T10:40:07.488Z,59.30
2018-02-09T10:41:07.487Z,54.80
2018-02-09T10:42:07.599Z,54.20
2018-02-09T10:43:08.096Z,58.50
2018-02-09T10:44:08.046Z,60.70
2018-02-09T10:45:07.474Z,66.10
2018-02-09T10:46:07.474Z,60.10
2018-02-09T10:47:07.473Z,60.50
2018-02-09T10:48:07.473Z,51.80
2018-02-09T10:49:07.508Z,54.20
2018-02-09T10:50:07.465Z,52.10
2018-02-09T10:51:07.463Z,47.30
2018-02-09T10:52:07.465Z,59.80
2018-02-09T10:53:07.461Z,48.70
2018-02-09T10:54:07.495Z,45.50
2018-02-09T10:55:07.454Z,58.80
2018-02-09T10:56:07.459Z,59.40
2018-02-09T10:57:07.541Z,36.70
2018-02-09T10:58:07.450Z,51.50
2018-02-09T10:59:07.488Z,69.30
2018-02-09T11:00:07.443Z,46.00
2018-02-09T11:01:07.442Z,60.70
2018-02-09T11:02:07.444Z,53.10
2018-02-09T11:03:07.472Z,56.50
2018-02-09T11:04:07.445Z,64.10
2018-02-09T11:05:07.473Z,63.50
2018-02-09T11:06:07.463Z,58.40
2018-02-09T11:07:07.426Z,57.50
2018-02-09T11:08:07.419Z,59.70
2018-02-09T11:09:07.457Z,57.80
2018-02-09T11:10:07.416Z,56.50
2018-02-09T11:11:07.413Z,63.40
2018-02-09T11:12:07.411Z,62.70
2018-02-09T11:13:07.405Z,66.00
2018-02-09T11:14:07.444Z,69.20
2018-02-09T11:15:07.437Z,62.70
2018-02-09T11:16:07.396Z,62.10
2018-02-09T11:17:07.396Z,69.20
2018-02-09T11:18:07.397Z,72.20
2018-02-09T11:19:07.450Z,67.20
2018-02-09T11:20:07.388Z,69.40
2018-02-09T11:21:07.387Z,68.40
2018-02-09T11:22:07.380Z,71.10
2018-02-09T11:23:07.385Z,69.90
2018-02-09T11:24:07.419Z,46.60
2018-02-09T11:25:07.382Z,64.50
2018-02-09T11:26:07.372Z,69.10
2018-02-09T11:27:07.397Z,58.90
2018-02-09T11:28:07.368Z,68.60
2018-02-09T11:29:07.408Z,67.30
2018-02-09T11:30:07.359Z,69.90
2018-02-09T11:31:07.368Z,75.80
2018-02-09T11:32:07.362Z,62.40
2018-02-09T11:33:07.361Z,58.40
2018-02-09T11:34:07.394Z,77.30
2018-02-09T11:35:07.347Z,57.30
2018-02-09T11:36:07.344Z,71.10
2018-02-09T11:37:07.337Z,66.50
2018-02-09T11:38:07.329Z,71.80
2018-02-09T11:39:07.376Z,71.90
2018-02-09T11:40:07.397Z,68.00
2018-02-09T11:41:07.323Z,67.70
2018-02-09T11:42:07.326Z,69.60
2018-02-09T11:43:07.358Z,72.60
2018-02-09T11:44:07.351Z,66.70
2018-02-09T11:45:07.309Z,72.80
2018-02-09T11:46:07.313Z,77.50
2018-02-09T11:47:07.306Z,80.60
2018-02-09T11:48:07.298Z,79.10
2018-02-09T11:49:07.335Z,67.40
2018-02-09T11:50:07.288Z,72.80
2018-02-09T11:51:07.282Z,74.10
2018-02-09T11:52:07.346Z,73.50
2018-02-09T11:53:07.283Z,73.10
2018-02-09T11:54:07.322Z,69.70
2018-02-09T11:55:07.282Z,61.30
2018-02-09T11:56:07.284Z,73.00
2018-02-09T11:57:07.263Z,67.10
2018-02-09T11:58:07.299Z,75.40
2018-02-09T11:59:07.303Z,67.10
2018-02-09T12:00:07.254Z,76.30
2018-02-09T12:01:07.247Z,77.80
2018-02-09T12:02:07.252Z,72.50
2018-02-09T12:03:07.286Z,72.20
2018-02-09T12:04:07.238Z,73.70
2018-02-09T12:05:07.234Z,64.80
2018-02-09T12:06:07.235Z,61.00
2018-02-09T12:07:07.231Z,71.40
2018-02-09T12:08:07.272Z,72.80
2018-02-09T12:09:07.220Z,69.40
2018-02-09T12:10:07.217Z,65.10
2018-02-09T12:11:07.220Z,78.30
2018-02-09T12:12:07.213Z,55.60
2018-02-09T12:13:07.259Z,72.40
2018-02-09T12:14:07.207Z,74.70
2018-02-09T12:15:07.254Z,77.10
2018-02-09T12:16:07.196Z,71.50
2018-02-09T12:17:07.193Z,67.20
2018-02-09T12:18:07.232Z,75.10
2018-02-09T12:19:07.188Z,71.70
2018-02-09T12:20:07.226Z,76.20
2018-02-09T12:21:07.189Z,77.00
2018-02-09T12:22:07.173Z,54.00
2018-02-09T12:23:07.218Z,58.50
2018-02-09T12:24:07.168Z,76.10
2018-02-09T12:25:07.161Z,53.40
2018-02-09T12:26:07.202Z,66.10
2018-02-09T12:27:07.159Z,77.70
2018-02-09T12:28:07.151Z,77.00
2018-02-09T12:29:07.150Z,74.80
2018-02-09T12:30:07.187Z,80.10
2018-02-09T12:31:07.138Z,73.80
2018-02-09T12:32:07.133Z,81.30
2018-02-09T12:33:07.137Z,77.60
2018-02-09T12:34:07.136Z,90.40
2018-02-09T12:35:07.178Z,66.60
2018-02-09T12:36:07.126Z,66.90
2018-02-09T12:37:07.138Z,76.80
2018-02-09T12:38:07.124Z,75.10
2018-02-09T12:39:07.128Z,73.90
2018-02-09T12:40:07.162Z,77.10
2018-02-09T12:41:07.120Z,48.80
2018-02-09T12:42:07.111Z,34.20
2018-02-09T12:43:07.108Z,61.30
2018-02-09T12:44:07.158Z,57.90
2018-02-09T12:45:07.110Z,46.50